createdAt,value
2018-08-12T06:34:44.125Z,21.52
2018-08-12T06:35:46.641Z,21.63
2018-08-12T06:36:49.142Z,21.75
2018-08-12T06:37:51.670Z,21.83
2018-08-12T06:38:54.189Z,21.91
2018-08-12T06:39:58.741Z,21.97
2018-08-12T06:41:01.311Z,22.04
2018-08-12T07:53:50.122Z,22.85
2018-08-12T07:54:52.619Z,22.88
2018-08-12T07:55:55.405Z,22.83
2018-08-12T07:56:58.268Z,22.75
2018-08-12T07:58:00.846Z,22.70
2018-08-12T07:59:03.896Z,22.74
2018-08-12T08:00:07.114Z,22.79
2018-08-12T08:01:09.742Z,22.86
2018-08-12T08:02:13.462Z,22.92
2018-08-12T08:03:16.537Z,22.96
2018-08-12T08:04:19.124Z,22.01
2018-08-12T08:05:23.293Z,22.79
2018-08-12T08:06:26.437Z,22.81
2018-08-12T08:07:29.695Z,22.88
2018-08-12T08:08:32.815Z,22.91
2018-08-12T08:09:35.521Z,22.81
2018-08-12T08:10:38.935Z,22.53
2018-08-12T08:11:42.134Z,22.56
2018-08-12T08:12:44.668Z,22.58
2018-08-12T08:13:47.401Z,22.49
2018-08-12T08:14:49.912Z,22.44
2018-08-12T08:15:52.576Z,22.33
2018-08-12T08:16:55.232Z,22.44
2018-08-12T08:17:58.544Z,22.53
2018-08-12T08:19:01.234Z,22.58
2018-08-12T08:20:03.922Z,22.66
2018-08-12T08:22:32.605Z,22.80
2018-08-12T08:23:35.892Z,22.82
2018-08-12T08:24:39.172Z,22.88
2018-08-12T08:25:42.656Z,22.93
2018-08-12T08:26:45.249Z,22.92
2018-08-12T08:27:47.928Z,22.85
2018-08-12T09:01:38.806Z,22.56
2018-08-12T09:02:41.429Z,22.68
2018-08-12T09:03:45.559Z,22.81
2018-08-12T09:04:48.172Z,22.94
2018-08-12T09:05:50.683Z,23.01
2018-08-12T09:06:54.010Z,23.03
2018-08-12T09:07:56.583Z,23.07
2018-08-12T09:08:59.457Z,23.10
2018-08-12T09:10:02.098Z,23.19
2018-08-12T09:11:04.766Z,23.13
2018-08-12T09:12:07.563Z,23.15
2018-08-12T09:13:10.775Z,22.37
2018-08-12T09:14:13.387Z,23.19
2018-08-12T09:15:16.059Z,23.11
2018-08-12T09:16:18.718Z,23.10
2018-08-12T09:17:21.411Z,23.18
2018-08-12T09:18:27.559Z,23.26
2018-08-12T09:19:30.703Z,23.23
2018-08-12T09:20:33.339Z,23.27
2018-08-12T09:21:35.914Z,23.21
2018-08-12T09:22:38.438Z,23.17
2018-08-12T09:23:41.678Z,23.15
2018-08-12T09:24:44.342Z,22.46
2018-08-12T09:25:47.337Z,23.30
2018-08-12T09:26:49.878Z,23.28
2018-08-12T09:27:53.116Z,23.30
2018-08-12T09:28:55.840Z,23.34
2018-08-12T09:29:58.534Z,23.36
2018-08-12T09:31:02.005Z,23.37
2018-08-12T09:32:05.644Z,23.34
2018-08-12T09:33:09.109Z,23.33
2018-08-12T09:34:11.642Z,23.35
2018-08-12T09:35:14.356Z,23.35
2018-08-12T09:36:18.078Z,23.31
2018-08-12T09:37:20.743Z,23.28
2018-08-12T09:38:23.803Z,23.32
2018-08-12T09:39:26.318Z,23.27
2018-08-12T09:40:28.803Z,23.29
2018-08-12T09:41:31.307Z,23.30
2018-08-12T09:42:33.832Z,23.32
2018-08-12T09:43:36.571Z,23.37
2018-08-12T09:44:39.460Z,23.31
2018-08-12T09:45:42.105Z,23.22
2018-08-12T09:46:45.118Z,23.25
2018-08-12T09:47:48.177Z,22.46
2018-08-12T09:48:50.792Z,23.35
2018-08-12T09:49:53.877Z,23.41
2018-08-12T09:50:57.856Z,23.39
2018-08-12T09:52:00.560Z,23.44
2018-08-12T09:53:03.092Z,23.46
2018-08-12T09:54:05.634Z,23.45
2018-08-12T09:55:10.490Z,23.44
2018-08-12T09:56:13.718Z,23.46
2018-08-12T09:57:16.763Z,23.47
2018-08-12T09:58:19.467Z,23.52
2018-08-12T09:59:22.005Z,23.49
2018-08-12T10:00:24.718Z,23.43
2018-08-12T10:01:27.513Z,23.35
2018-08-12T10:02:30.240Z,23.32
2018-08-12T10:03:33.231Z,23.39
2018-08-12T10:04:35.754Z,23.44
2018-08-12T10:05:38.419Z,23.51
2018-08-12T10:06:41.579Z,23.52
2018-08-12T10:07:45.318Z,23.47
2018-08-12T10:08:47.884Z,23.44
2018-08-12T10:09:50.861Z,23.43
2018-08-12T10:10:53.372Z,23.42
2018-08-12T10:11:56.500Z,23.47
2018-08-12T10:13:02.326Z,23.51
2018-08-12T10:14:05.119Z,23.56
2018-08-12T10:15:07.704Z,23.54
2018-08-12T10:16:10.759Z,23.48
2018-08-12T10:17:16.071Z,23.49
2018-08-12T10:18:18.631Z,23.50
2018-08-12T10:19:21.184Z,23.53
2018-08-12T10:20:24.266Z,23.56
2018-08-12T10:21:29.796Z,23.60
2018-08-12T10:22:34.581Z,23.62
2018-08-12T10:23:37.248Z,23.69
2018-08-12T10:24:39.851Z,23.65
2018-08-12T10:25:43.580Z,23.67
2018-08-12T10:26:48.068Z,23.69
2018-08-12T10:27:50.673Z,23.68
2018-08-12T10:28:53.358Z,23.71
2018-08-12T10:29:55.913Z,23.70
2018-08-12T10:30:59.416Z,23.71
2018-08-12T10:32:02.169Z,23.72
2018-08-12T12:33:58.165Z,23.51
2018-08-12T12:35:00.831Z,23.59
2018-08-12T12:36:04.275Z,23.71
2018-08-12T12:37:07.055Z,23.85
2018-08-12T12:38:10.195Z,23.97
2018-08-12T12:39:13.653Z,24.05
2018-08-12T12:40:16.787Z,24.13
2018-08-12T12:41:19.379Z,24.18
2018-08-12T12:42:22.653Z,24.22
2018-08-12T12:43:25.309Z,24.24
2018-08-12T12:44:27.781Z,24.27
2018-08-12T12:45:31.023Z,24.30
2018-08-12T12:46:33.676Z,24.32
2018-08-12T12:47:36.236Z,24.34
2018-08-12T12:48:39.092Z,24.35
2018-08-12T12:49:41.832Z,24.36
2018-08-12T12:50:44.647Z,24.37
2018-08-12T12:51:47.915Z,24.38
2018-08-12T12:52:51.253Z,24.38
2018-08-12T12:53:53.793Z,24.40
2018-08-12T12:54:56.896Z,24.41
2018-08-12T12:56:00.908Z,24.41
2018-08-12T12:57:04.698Z,24.41
2018-08-12T12:58:10.858Z,24.44
2018-08-12T12:59:16.664Z,24.45
2018-08-12T13:00:20.966Z,24.46
2018-08-12T13:01:23.485Z,24.46
2018-08-12T13:02:26.000Z,24.47
2018-08-12T13:03:28.548Z,24.46
2018-08-12T13:04:31.716Z,24.48
2018-08-12T13:05:34.257Z,24.47
2018-08-12T13:06:37.412Z,24.47
2018-08-12T13:07:43.656Z,24.47
2018-08-12T13:08:46.699Z,24.47
2018-08-12T13:09:49.236Z,24.48
2018-08-12T13:10:53.171Z,24.51
2018-08-12T13:44:19.672Z,23.84
2018-08-12T13:45:22.509Z,23.93
2018-08-12T13:46:29.259Z,24.05
2018-08-12T15:18:57.711Z,24.07
2018-08-12T15:20:00.300Z,24.14
2018-08-12T15:21:02.948Z,24.25
2018-08-12T15:22:06.296Z,24.37
2018-08-12T15:23:08.922Z,24.47
2018-08-12T15:24:12.045Z,24.53
2018-08-12T15:51:30.475Z,24.07
2018-08-12T15:52:34.091Z,24.15
2018-08-12T15:53:36.688Z,24.27
2018-08-12T15:54:39.298Z,24.41
2018-08-12T15:55:42.491Z,24.51
2018-08-12T15:56:46.561Z,24.60
2018-08-12T15:57:49.254Z,24.66
2018-08-12T15:58:51.890Z,24.70
2018-08-12T15:59:54.481Z,24.72
2018-08-12T16:00:57.099Z,24.75
2018-08-12T16:01:59.688Z,24.78
2018-08-12T16:03:02.768Z,24.80
2018-08-12T16:04:05.371Z,24.83
2018-08-12T16:05:07.956Z,24.84
2018-08-12T16:06:10.550Z,24.85
2018-08-12T16:07:13.140Z,24.85
2018-08-12T16:08:16.341Z,24.88
2018-08-12T16:09:19.495Z,24.89
2018-08-12T16:10:22.186Z,24.90
2018-08-12T16:11:25.725Z,24.92
2018-08-12T16:12:28.291Z,24.93
2018-08-12T16:13:31.157Z,24.93
2018-08-12T16:14:33.761Z,24.94
2018-08-12T16:15:36.837Z,24.94
2018-08-12T16:16:40.251Z,24.96
2018-08-12T16:17:42.868Z,24.98
2018-08-12T16:18:45.475Z,24.99
2018-08-12T16:19:48.059Z,25.00
2018-08-12T16:20:50.701Z,25.00
2018-08-12T16:21:54.297Z,25.01
2018-08-12T16:22:56.889Z,24.46
2018-08-12T17:10:17.383Z,24.47
2018-08-12T17:11:19.992Z,24.54
2018-08-12T17:12:22.492Z,24.64
2018-08-12T17:13:24.988Z,24.77
2018-08-12T17:14:27.477Z,24.84
2018-08-12T17:15:30.280Z,22.90
2018-08-12T17:16:33.411Z,24.92
